createdAt,value
2018-12-04T00:01:40.049Z,56.09
2018-12-04T00:04:06.087Z,56.03
2018-12-04T00:06:32.137Z,56.05
2018-12-04T00:08:58.099Z,56.51
2018-12-04T00:11:24.071Z,56.73
2018-12-04T00:13:50.122Z,55.93
2018-12-04T00:16:16.075Z,57.09
2018-12-04T00:18:42.080Z,56.59
2018-12-04T00:21:08.043Z,56.30
2018-12-04T00:23:33.954Z,55.97
2018-12-04T00:25:59.919Z,56.73
2018-12-04T00:28:25.906Z,56.46
2018-12-04T00:30:51.867Z,57.34
2018-12-04T00:33:17.828Z,56.21
2018-12-04T00:35:43.800Z,56.66
2018-12-04T00:38:09.809Z,56.24
2018-12-04T00:40:35.756Z,56.42
2018-12-04T00:43:01.702Z,56.04
2018-12-04T00:45:27.655Z,56.58
2018-12-04T00:47:53.607Z,57.20
2018-12-04T00:50:19.565Z,56.06
2018-12-04T00:52:45.523Z,56.52
2018-12-04T00:55:11.476Z,57.06
2018-12-04T00:57:37.427Z,56.91
2018-12-04T01:00:03.437Z,56.17
2018-12-04T01:02:29.404Z,56.75
2018-12-04T01:04:55.362Z,56.35
2018-12-04T01:07:21.434Z,57.49
2018-12-04T01:09:47.580Z,56.79
2018-12-04T01:12:13.545Z,56.97
2018-12-04T01:14:39.502Z,56.42
2018-12-04T01:17:05.494Z,56.83
2018-12-04T01:22:03.959Z,56.43
2018-12-04T01:24:29.946Z,56.76
2018-12-04T01:26:55.897Z,56.40
2018-12-04T01:29:21.857Z,56.78
2018-12-04T01:31:47.838Z,56.47
2018-12-04T01:34:13.825Z,56.48
2018-12-04T01:36:40.846Z,56.97
2018-12-04T01:39:06.795Z,56.76
2018-12-04T01:41:33.666Z,57.29
2018-12-04T01:43:59.653Z,56.91
2018-12-04T01:46:25.594Z,56.22
2018-12-04T01:48:51.552Z,57.08
2018-12-04T01:51:17.532Z,56.75
2018-12-04T01:53:43.470Z,56.19
2018-12-04T01:56:09.442Z,56.71
2018-12-04T01:58:35.415Z,56.77
2018-12-04T02:01:01.438Z,56.07
2018-12-04T02:03:27.397Z,56.15
2018-12-04T02:05:53.359Z,57.11
2018-12-04T02:08:19.339Z,56.60
2018-12-04T02:10:45.277Z,55.89
2018-12-04T02:13:11.265Z,56.46
2018-12-04T02:15:37.210Z,56.34
2018-12-04T02:18:03.245Z,56.63
2018-12-04T02:20:29.205Z,56.50
2018-12-04T02:22:55.237Z,56.14
2018-12-04T02:25:21.198Z,56.57
2018-12-04T02:27:47.177Z,56.05
2018-12-04T02:30:13.149Z,56.76
2018-12-04T02:32:39.172Z,55.91
2018-12-04T02:35:05.229Z,55.77
2018-12-04T02:37:31.185Z,55.94
2018-12-04T02:39:57.153Z,56.42
2018-12-04T02:42:23.104Z,55.87
2018-12-04T02:44:49.252Z,55.80
2018-12-04T02:47:15.211Z,56.60
2018-12-04T02:49:41.195Z,56.66
2018-12-04T02:52:07.144Z,55.89
2018-12-04T02:54:33.114Z,56.09
2018-12-04T02:56:59.087Z,56.33
2018-12-04T02:59:25.051Z,56.42
2018-12-04T03:01:51.031Z,56.17
2018-12-04T03:04:16.971Z,56.10
2018-12-04T03:06:42.972Z,55.80
2018-12-04T03:09:08.971Z,56.62
2018-12-04T03:11:34.946Z,56.62
2018-12-04T03:14:00.908Z,56.49
2018-12-04T03:16:26.877Z,56.73
2018-12-04T03:18:52.824Z,56.08
2018-12-04T03:21:18.785Z,56.19
2018-12-04T03:23:44.781Z,56.42
2018-12-04T03:26:10.707Z,56.32
2018-12-04T03:28:36.682Z,56.23
2018-12-04T03:31:02.635Z,56.78
2018-12-04T03:33:28.580Z,56.68
2018-12-04T03:35:54.532Z,55.81
2018-12-04T03:38:20.583Z,56.77
2018-12-04T03:40:46.581Z,55.79
2018-12-04T03:43:12.565Z,56.12
2018-12-04T03:45:38.539Z,56.59
2018-12-04T03:48:04.486Z,55.79
2018-12-04T03:50:30.509Z,55.75
2018-12-04T03:52:56.467Z,56.27
2018-12-04T03:55:22.473Z,55.59
2018-12-04T03:57:48.426Z,55.45
2018-12-04T04:00:14.415Z,56.58
2018-12-04T04:02:40.438Z,56.16
2018-12-04T04:05:06.382Z,55.63
2018-12-04T04:07:32.342Z,55.60
2018-12-04T04:09:58.309Z,55.81
2018-12-04T04:12:24.276Z,56.66
2018-12-04T04:14:50.235Z,56.82
2018-12-04T04:17:16.325Z,56.57
2018-12-04T04:19:42.290Z,56.29
2018-12-04T04:22:08.380Z,55.65
2018-12-04T04:24:34.334Z,56.75
2018-12-04T04:27:00.314Z,55.65
2018-12-04T04:29:26.274Z,55.77
2018-12-04T04:31:52.240Z,56.35
2018-12-04T04:34:18.182Z,56.22
2018-12-04T04:36:44.226Z,55.99
2018-12-04T04:39:10.237Z,55.99
2018-12-04T04:41:36.186Z,56.37
2018-12-04T04:44:02.139Z,56.20
2018-12-04T04:46:28.183Z,55.53
2018-12-04T04:48:54.143Z,55.89
2018-12-04T04:51:20.088Z,56.42
2018-12-04T04:53:46.054Z,56.22
2018-12-04T04:56:12.059Z,55.66
2018-12-04T04:58:38.149Z,55.72
2018-12-04T05:01:04.235Z,56.78
2018-12-04T05:03:30.739Z,55.94
2018-12-04T05:05:56.705Z,56.61
2018-12-04T05:08:22.663Z,55.93
2018-12-04T05:10:48.645Z,55.80
2018-12-04T05:13:14.587Z,55.98
2018-12-04T05:15:40.536Z,56.62
2018-12-04T05:18:06.497Z,55.93
2018-12-04T05:20:32.449Z,56.66
2018-12-04T05:22:58.419Z,55.70
2018-12-04T05:25:24.374Z,55.63
2018-12-04T05:27:50.439Z,55.67
2018-12-04T05:30:16.399Z,56.09
2018-12-04T05:32:42.376Z,55.45
2018-12-04T05:35:08.350Z,55.43
2018-12-04T05:37:34.342Z,56.39
2018-12-04T05:40:00.314Z,56.69
2018-12-04T05:42:26.269Z,55.97
2018-12-04T05:44:52.238Z,56.71
2018-12-04T05:47:18.198Z,55.57
2018-12-04T05:49:44.181Z,56.06
2018-12-04T05:52:10.130Z,55.76
2018-12-04T05:54:36.087Z,56.54
2018-12-04T05:57:03.111Z,56.30
2018-12-04T05:59:29.069Z,56.33
2018-12-04T06:01:55.050Z,56.27
2018-12-04T06:04:21.019Z,56.48
2018-12-04T06:06:47.063Z,55.47
2018-12-04T06:09:13.008Z,56.30
2018-12-04T06:11:39.002Z,56.57
2018-12-04T06:14:04.998Z,55.43
2018-12-04T06:16:30.965Z,55.84
2018-12-04T06:18:56.917Z,55.57
2018-12-04T06:21:22.899Z,55.56
2018-12-04T06:23:48.835Z,55.71
2018-12-04T06:26:14.797Z,55.75
2018-12-04T06:28:40.771Z,56.13
2018-12-04T06:31:06.722Z,56.25
2018-12-04T06:33:32.661Z,56.12
2018-12-04T06:35:58.637Z,55.49
2018-12-04T06:38:24.591Z,55.63
2018-12-04T06:40:50.542Z,55.65
2018-12-04T06:43:16.496Z,56.29
2018-12-04T06:45:42.481Z,56.59
2018-12-04T06:48:08.446Z,55.25
2018-12-04T06:50:34.421Z,55.35
2018-12-04T06:53:00.377Z,55.74
2018-12-04T06:55:26.467Z,55.77
2018-12-04T06:57:52.437Z,55.69
2018-12-04T07:00:18.433Z,55.98
2018-12-04T07:02:44.379Z,55.43
2018-12-04T07:05:10.327Z,55.27
2018-12-04T07:07:36.305Z,56.34
2018-12-04T07:10:02.283Z,56.10
2018-12-04T07:12:28.254Z,56.00
2018-12-04T07:14:54.205Z,56.31
2018-12-04T07:17:20.159Z,55.54
2018-12-04T07:19:46.116Z,56.30
2018-12-04T07:22:12.070Z,56.30
2018-12-04T07:24:38.018Z,55.24
2018-12-04T07:27:03.982Z,55.34
2018-12-04T07:29:29.932Z,55.44
2018-12-04T07:31:55.894Z,55.75
2018-12-04T07:34:21.903Z,55.22
2018-12-04T07:36:47.926Z,55.87
2018-12-04T07:39:13.958Z,55.81
2018-12-04T07:41:39.908Z,55.30
2018-12-04T07:44:05.867Z,55.42
2018-12-04T07:46:31.867Z,56.04
2018-12-04T07:48:57.829Z,56.55
2018-12-04T07:51:23.819Z,55.25
2018-12-04T07:53:49.782Z,55.26
2018-12-04T07:56:15.734Z,56.60
2018-12-04T07:58:41.693Z,55.53
2018-12-04T08:01:07.673Z,56.22
2018-12-04T08:03:33.695Z,56.14
2018-12-04T08:05:59.638Z,55.76
2018-12-04T08:08:25.626Z,56.12
2018-12-04T08:10:51.619Z,57.11
2018-12-04T08:13:17.615Z,55.74
2018-12-04T08:15:43.557Z,54.91
2018-12-04T08:18:09.527Z,54.89
2018-12-04T08:20:35.490Z,55.21
2018-12-04T08:23:01.668Z,56.00
2018-12-04T08:25:27.702Z,55.64
2018-12-04T08:27:53.666Z,56.07
2018-12-04T08:30:19.639Z,55.37
2018-12-04T08:32:45.778Z,55.20
2018-12-04T08:35:11.857Z,56.02
2018-12-04T08:37:37.825Z,55.78
2018-12-04T08:40:03.766Z,55.52
2018-12-04T08:42:29.722Z,55.35
2018-12-04T08:44:55.708Z,55.52
2018-12-04T08:47:21.670Z,55.90
2018-12-04T08:49:47.663Z,55.52
2018-12-04T08:52:13.617Z,56.00
2018-12-04T08:54:39.578Z,56.09
2018-12-04T08:57:05.785Z,56.29
2018-12-04T08:59:31.738Z,56.25
2018-12-04T09:01:57.725Z,55.63
2018-12-04T09:04:23.674Z,55.97
2018-12-04T09:06:49.746Z,56.23
2018-12-04T09:09:15.727Z,56.10
2018-12-04T09:11:41.693Z,55.64
2018-12-04T09:14:07.652Z,55.73
2018-12-04T09:16:33.610Z,56.22
2018-12-04T09:18:59.626Z,55.57
2018-12-04T09:21:25.759Z,56.35
2018-12-04T09:23:51.909Z,55.51
2018-12-04T09:26:18.049Z,55.47
2018-12-04T09:28:44.082Z,56.11
2018-12-04T09:31:10.127Z,55.42
2018-12-04T09:33:36.176Z,54.88
2018-12-04T09:36:02.190Z,55.63
2018-12-04T09:38:28.159Z,55.96
2018-12-04T09:40:54.113Z,55.28
2018-12-04T09:43:20.094Z,55.77
2018-12-04T09:45:46.059Z,55.48
2018-12-04T09:48:12.014Z,56.54
2018-12-04T09:50:37.968Z,55.32
2018-12-04T09:53:03.918Z,56.14
2018-12-04T09:55:30.060Z,55.43
2018-12-04T09:57:56.008Z,55.57
2018-12-04T10:00:22.022Z,55.66
2018-12-04T10:02:47.990Z,55.86
2018-12-04T10:05:13.930Z,55.63
2018-12-04T10:07:39.886Z,55.65
2018-12-04T10:10:05.874Z,55.44
2018-12-04T10:12:31.812Z,55.57
2018-12-04T10:14:57.787Z,55.49
2018-12-04T10:17:23.761Z,55.26
2018-12-04T10:19:49.771Z,55.91
2018-12-04T10:22:15.754Z,55.09
2018-12-04T10:24:41.699Z,55.29
2018-12-04T10:27:07.673Z,55.06
2018-12-04T10:29:33.622Z,54.96
2018-12-04T10:31:59.560Z,55.30
2018-12-04T10:34:25.514Z,56.00
2018-12-04T10:36:51.522Z,55.65
2018-12-04T10:39:17.501Z,55.41
2018-12-04T10:41:43.481Z,55.38
2018-12-04T10:44:09.454Z,55.95
2018-12-04T10:46:35.422Z,55.41
2018-12-04T10:49:01.420Z,55.48
2018-12-04T10:51:27.451Z,55.22
2018-12-04T10:53:53.443Z,55.23
2018-12-04T10:56:19.675Z,55.99
2018-12-04T10:58:45.643Z,55.35
2018-12-04T11:01:11.601Z,54.95
2018-12-04T11:03:37.548Z,55.40
2018-12-04T11:06:03.511Z,55.02
2018-12-04T11:08:29.466Z,55.40
2018-12-04T11:10:55.436Z,56.01
2018-12-04T11:13:21.385Z,56.00
2018-12-04T11:15:47.368Z,55.71
2018-12-04T11:18:13.330Z,55.06
2018-12-04T11:20:39.351Z,55.39
2018-12-04T11:23:05.365Z,55.02
2018-12-04T11:25:31.343Z,55.38
2018-12-04T11:27:57.289Z,55.20
2018-12-04T11:30:23.261Z,55.79
2018-12-04T11:32:49.230Z,54.92
2018-12-04T11:35:15.196Z,55.68
2018-12-04T11:37:41.136Z,55.25
2018-12-04T11:40:07.091Z,55.04
2018-12-04T11:42:33.054Z,55.48
2018-12-04T11:44:59.010Z,55.28
2018-12-04T11:47:24.958Z,54.46
2018-12-04T11:49:50.919Z,55.13
2018-12-04T11:52:16.869Z,54.68
2018-12-04T11:54:42.824Z,54.71
2018-12-04T11:57:08.799Z,54.65
2018-12-04T11:59:34.755Z,55.40
2018-12-04T12:02:00.823Z,54.58
2018-12-04T12:04:26.874Z,55.17
2018-12-04T12:06:52.830Z,55.08
2018-12-04T12:09:18.790Z,55.37
2018-12-04T12:11:44.761Z,55.21
2018-12-04T12:14:10.715Z,55.28
2018-12-04T12:16:36.671Z,55.38
2018-12-04T12:19:02.643Z,55.68
2018-12-04T12:21:28.615Z,55.24
2018-12-04T12:23:54.573Z,56.06
2018-12-04T12:26:20.534Z,55.34
2018-12-04T12:28:46.490Z,54.68
2018-12-04T12:31:12.463Z,55.82
2018-12-04T12:33:38.444Z,55.17
2018-12-04T12:36:04.493Z,55.73
2018-12-04T12:38:30.466Z,55.26
2018-12-04T12:40:56.426Z,56.12
2018-12-04T12:43:22.371Z,55.86
2018-12-04T12:45:48.407Z,55.38
2018-12-04T12:48:14.382Z,54.71
2018-12-04T12:50:40.342Z,55.25
2018-12-04T12:53:06.341Z,55.23
2018-12-04T12:55:32.298Z,54.65
2018-12-04T12:57:58.279Z,54.60
2018-12-04T13:00:24.233Z,55.17
2018-12-04T13:02:50.188Z,55.04
2018-12-04T13:05:16.138Z,55.83
2018-12-04T13:07:42.105Z,55.48
2018-12-04T13:10:08.072Z,54.71
2018-12-04T13:12:34.030Z,55.48
2018-12-04T13:15:00.003Z,55.62
2018-12-04T13:17:26.058Z,56.59
2018-12-04T13:19:52.177Z,55.73
2018-12-04T13:22:18.116Z,56.06
2018-12-04T13:24:44.162Z,56.01
2018-12-04T13:27:10.119Z,55.14
2018-12-04T13:29:36.111Z,55.72
2018-12-04T13:32:02.155Z,55.87
2018-12-04T13:34:28.140Z,55.74
2018-12-04T13:36:54.224Z,55.03
2018-12-04T13:39:20.276Z,55.97
2018-12-04T13:41:46.537Z,55.56
2018-12-04T13:44:12.543Z,55.30
2018-12-04T13:46:38.493Z,55.62
2018-12-04T13:49:04.475Z,55.74
2018-12-04T13:51:30.426Z,55.61
2018-12-04T13:53:56.406Z,56.34
2018-12-04T13:56:22.463Z,55.70
2018-12-04T13:58:49.061Z,56.58
2018-12-04T14:01:15.158Z,55.77
2018-12-04T14:03:41.255Z,55.50
2018-12-04T14:06:07.306Z,55.28
2018-12-04T14:08:33.274Z,56.64
2018-12-04T14:10:59.238Z,55.83
2018-12-04T14:13:25.295Z,56.16
2018-12-04T14:15:51.407Z,55.77
2018-12-04T14:18:17.443Z,55.97
2018-12-04T14:20:43.440Z,53.77
2018-12-04T14:23:09.493Z,54.82
2018-12-04T14:25:35.537Z,54.68
2018-12-04T14:28:01.604Z,54.77
2018-12-04T14:30:27.566Z,54.34
2018-12-04T14:32:53.567Z,54.43
2018-12-04T14:35:19.505Z,55.06
2018-12-04T14:37:45.466Z,54.65
2018-12-04T14:40:11.437Z,54.27
2018-12-04T14:42:37.510Z,54.25
2018-12-04T14:45:04.130Z,53.94
2018-12-04T14:47:30.117Z,54.47
2018-12-04T14:49:56.175Z,55.14
2018-12-04T14:52:22.247Z,54.44
2018-12-04T14:54:48.270Z,55.66
2018-12-04T14:57:14.242Z,54.74
2018-12-04T14:59:40.343Z,54.52
2018-12-04T15:02:06.397Z,54.33
2018-12-04T15:04:32.516Z,54.67
2018-12-04T15:06:58.638Z,55.13
2018-12-04T15:09:24.664Z,54.75
2018-12-04T15:11:50.771Z,54.50
2018-12-04T15:14:16.744Z,53.43
2018-12-04T15:16:42.717Z,54.45
2018-12-04T15:19:08.705Z,54.15
2018-12-04T15:21:34.734Z,53.80
2018-12-04T15:24:00.729Z,53.22
2018-12-04T15:26:26.801Z,54.59
2018-12-04T15:28:52.870Z,53.91
2018-12-04T15:31:18.955Z,54.78
2018-12-04T15:33:45.007Z,54.61
2018-12-04T15:36:11.032Z,54.72
2018-12-04T15:38:37.108Z,55.16
2018-12-04T15:41:03.147Z,54.65
2018-12-04T15:43:29.111Z,54.40
2018-12-04T15:45:55.155Z,54.72
2018-12-04T15:48:21.126Z,54.71
2018-12-04T15:50:47.311Z,54.93
2018-12-04T15:53:13.408Z,54.17
2018-12-04T15:55:39.454Z,53.92
2018-12-04T15:58:05.431Z,54.21
2018-12-04T16:00:31.391Z,54.40
2018-12-04T16:02:57.358Z,54.67
2018-12-04T16:05:23.340Z,54.08
2018-12-04T16:07:49.305Z,54.82
2018-12-04T16:10:15.266Z,54.74
2018-12-04T16:12:41.217Z,55.07
2018-12-04T16:15:07.170Z,54.85
2018-12-04T16:17:33.132Z,54.32
2018-12-04T16:19:59.174Z,54.31
2018-12-04T16:22:25.134Z,54.03
2018-12-04T16:24:51.140Z,54.95
2018-12-04T16:27:17.100Z,54.97
2018-12-04T16:29:43.061Z,55.14
2018-12-04T16:32:09.027Z,55.27
2018-12-04T16:34:35.008Z,54.92
2018-12-04T16:37:00.968Z,54.68
2018-12-04T16:39:27.007Z,54.36
2018-12-04T16:41:53.032Z,55.07
2018-12-04T16:44:19.066Z,54.81
2018-12-04T16:46:45.089Z,54.46
2018-12-04T16:49:11.133Z,54.49
2018-12-04T16:51:37.149Z,54.80
2018-12-04T16:54:03.139Z,54.97
2018-12-04T16:56:29.303Z,54.96
2018-12-04T16:58:55.283Z,54.77
2018-12-04T17:01:21.236Z,54.05
2018-12-04T17:03:47.223Z,54.88
2018-12-04T17:06:13.182Z,54.27
2018-12-04T17:08:39.155Z,54.15
2018-12-04T17:11:05.101Z,54.96
2018-12-04T17:13:31.054Z,54.44
2018-12-04T17:15:57.029Z,54.85
2018-12-04T17:18:22.988Z,55.03
2018-12-04T17:20:48.999Z,54.37
2018-12-04T17:23:14.987Z,54.49
2018-12-04T17:25:40.940Z,54.50
2018-12-04T17:28:06.906Z,54.17
2018-12-04T17:30:32.859Z,54.77
2018-12-04T17:32:58.947Z,54.73
2018-12-04T17:35:24.916Z,54.91
2018-12-04T17:37:50.880Z,53.98
2018-12-04T17:40:16.869Z,54.17
2018-12-04T17:42:42.835Z,54.15
2018-12-04T17:45:08.809Z,54.48
2018-12-04T17:47:34.791Z,54.27
2018-12-04T17:50:00.754Z,55.32
2018-12-04T17:52:26.772Z,54.90
2018-12-04T17:54:52.778Z,55.02
2018-12-04T17:57:18.717Z,54.63
2018-12-04T17:59:44.689Z,54.61
2018-12-04T18:02:10.646Z,54.81
2018-12-04T18:04:36.639Z,53.75
2018-12-04T18:07:02.734Z,51.46
2018-12-04T18:09:28.759Z,52.45
2018-12-04T18:11:54.734Z,52.29
2018-12-04T18:14:20.702Z,53.03
2018-12-04T18:16:46.670Z,53.45
2018-12-04T18:19:12.676Z,53.74
2018-12-04T18:21:38.658Z,54.26
2018-12-04T18:24:04.626Z,53.72
2018-12-04T18:26:30.770Z,54.13
2018-12-04T18:28:56.733Z,54.39
2018-12-04T18:31:22.707Z,54.08
2018-12-04T18:33:48.699Z,54.26
2018-12-04T18:36:14.639Z,53.66
2018-12-04T18:38:40.600Z,53.90
2018-12-04T18:41:06.623Z,54.49
2018-12-04T18:43:32.585Z,54.77
2018-12-04T18:45:58.558Z,54.68
2018-12-04T18:48:24.540Z,53.86
2018-12-04T18:50:50.495Z,54.47
2018-12-04T18:53:16.465Z,54.08
2018-12-04T18:55:42.455Z,53.88
2018-12-04T18:58:08.418Z,54.77
2018-12-04T19:00:34.497Z,54.90
2018-12-04T19:03:00.457Z,54.04
2018-12-04T19:05:26.529Z,54.57
2018-12-04T19:07:52.501Z,54.11
2018-12-04T19:10:18.566Z,53.59
2018-12-04T19:12:44.552Z,54.23
2018-12-04T19:15:10.498Z,54.80
2018-12-04T19:17:36.448Z,54.72
2018-12-04T19:20:02.413Z,54.21
2018-12-04T19:22:28.428Z,54.16
2018-12-04T19:24:54.389Z,54.55
2018-12-04T19:27:20.378Z,54.71
2018-12-04T19:29:46.421Z,54.02
2018-12-04T19:32:12.397Z,53.83
2018-12-04T19:34:38.363Z,53.68
2018-12-04T19:37:04.362Z,54.95
2018-12-04T19:39:30.327Z,54.05
2018-12-04T19:41:56.294Z,54.42
2018-12-04T19:44:22.288Z,53.98
2018-12-04T19:46:48.449Z,54.72
2018-12-04T19:49:14.438Z,54.21
2018-12-04T19:51:40.456Z,53.93
2018-12-04T19:54:06.424Z,54.61
2018-12-04T19:56:32.367Z,54.39
2018-12-04T19:58:58.426Z,54.76
2018-12-04T20:01:24.428Z,54.48
2018-12-04T20:03:50.422Z,53.69
2018-12-04T20:06:16.443Z,53.79
2018-12-04T20:08:42.476Z,54.29
2018-12-04T20:11:08.427Z,54.81
2018-12-04T20:13:34.391Z,53.16
2018-12-04T20:16:00.384Z,54.28
2018-12-04T20:18:26.382Z,54.33
2018-12-04T20:20:52.359Z,53.87
2018-12-04T20:23:18.377Z,53.64
2018-12-04T20:25:44.611Z,53.72
2018-12-04T20:28:10.553Z,54.36
2018-12-04T20:30:36.551Z,54.55
2018-12-04T20:33:03.228Z,54.45
2018-12-04T20:35:29.198Z,54.21
2018-12-04T20:37:55.190Z,54.83
2018-12-04T20:40:21.157Z,54.59
2018-12-04T20:42:47.165Z,53.44
2018-12-04T20:45:13.187Z,54.11
2018-12-04T20:47:39.152Z,53.83
2018-12-04T20:50:06.179Z,53.73
2018-12-04T20:52:32.147Z,53.80
2018-12-04T20:54:58.146Z,53.58
2018-12-04T20:57:24.116Z,53.68
2018-12-04T20:59:50.095Z,54.08
2018-12-04T21:02:16.077Z,54.25
2018-12-04T21:04:42.069Z,53.91
2018-12-04T21:07:08.073Z,54.41
2018-12-04T21:09:34.096Z,53.83
2018-12-04T21:12:00.233Z,53.46
2018-12-04T21:14:26.274Z,53.74
2018-12-04T21:16:52.229Z,54.65
2018-12-04T21:19:18.202Z,54.38
2018-12-04T21:21:44.174Z,54.40
2018-12-04T21:24:10.155Z,54.43
2018-12-04T21:26:37.008Z,54.51
2018-12-04T21:29:03.147Z,54.02
2018-12-04T21:31:29.128Z,53.48
2018-12-04T21:33:55.097Z,53.45
2018-12-04T21:36:21.172Z,54.63
2018-12-04T21:38:47.195Z,54.11
2018-12-04T21:41:13.156Z,54.24
2018-12-04T21:43:39.131Z,53.67
2018-12-04T21:46:05.118Z,54.92
2018-12-04T21:48:31.076Z,54.31
2018-12-04T21:50:57.313Z,54.91
2018-12-04T21:53:23.341Z,54.84
2018-12-04T21:55:49.316Z,54.78
2018-12-04T21:58:15.285Z,54.93
2018-12-04T22:00:41.273Z,54.84
2018-12-04T22:03:07.247Z,54.69
2018-12-04T22:05:33.219Z,54.02
2018-12-04T22:07:59.172Z,54.36
2018-12-04T22:10:25.126Z,54.08
2018-12-04T22:12:51.175Z,53.90
2018-12-04T22:15:17.149Z,54.13
2018-12-04T22:17:43.119Z,55.00
2018-12-04T22:20:09.085Z,54.90
2018-12-04T22:22:35.093Z,54.85
2018-12-04T22:25:01.068Z,54.07
2018-12-04T22:27:27.022Z,54.59
2018-12-04T22:29:52.986Z,54.91
2018-12-04T22:32:18.966Z,54.59
2018-12-04T22:34:45.018Z,54.32
2018-12-04T22:37:11.002Z,55.14
2018-12-04T22:39:36.962Z,54.90
2018-12-04T22:42:02.957Z,54.42
2018-12-04T22:44:28.899Z,54.92
2018-12-04T22:46:54.872Z,54.36
2018-12-04T22:49:20.869Z,54.19
2018-12-04T22:51:47.204Z,54.51
2018-12-04T22:54:13.194Z,54.93
2018-12-04T22:56:39.383Z,55.27
2018-12-04T22:59:05.333Z,54.57
2018-12-04T23:01:31.324Z,54.95
2018-12-04T23:03:57.281Z,54.45
2018-12-04T23:06:23.276Z,54.53
2018-12-04T23:08:49.226Z,54.15
2018-12-04T23:11:15.189Z,54.74
2018-12-04T23:13:41.143Z,54.90
2018-12-04T23:16:07.139Z,55.18
2018-12-04T23:18:33.108Z,54.64
2018-12-04T23:20:59.066Z,54.32
2018-12-04T23:23:25.046Z,54.59
2018-12-04T23:25:51.008Z,54.78
2018-12-04T23:28:16.986Z,54.37
2018-12-04T23:30:42.957Z,54.31
2018-12-04T23:33:08.931Z,54.14
2018-12-04T23:35:34.970Z,54.21
2018-12-04T23:38:00.952Z,54.16
2018-12-04T23:40:26.903Z,54.50
2018-12-04T23:42:52.893Z,54.11
2018-12-04T23:45:18.869Z,54.92
2018-12-04T23:47:44.844Z,54.70
2018-12-04T23:50:11.074Z,54.92
2018-12-04T23:52:37.045Z,54.59
2018-12-04T23:55:03.012Z,54.05
2018-12-04T23:57:28.960Z,54.18
2018-12-04T23:59:54.911Z,54.91
